createdAt,value
2023-12-18T00:00:04.082Z,20.80
2023-12-18T00:02:30.610Z,20.78
2023-12-18T00:04:57.018Z,20.77
2023-12-18T00:07:23.434Z,20.78
2023-12-18T00:09:49.814Z,20.77
2023-12-18T00:12:16.204Z,20.80
2023-12-18T00:14:42.590Z,20.76
2023-12-18T00:17:08.951Z,20.84
2023-12-18T00:19:35.450Z,20.81
2023-12-18T00:22:01.878Z,20.81
2023-12-18T00:24:28.286Z,20.86
2023-12-18T00:26:54.658Z,20.80
2023-12-18T00:29:21.018Z,20.75
2023-12-18T00:31:47.368Z,20.75
2023-12-18T00:34:13.788Z,20.78
2023-12-18T00:36:40.313Z,20.76
2023-12-18T00:39:06.712Z,20.71
2023-12-18T00:41:33.106Z,20.73
2023-12-18T00:43:59.452Z,20.72
2023-12-18T00:46:25.859Z,20.70
2023-12-18T00:48:52.408Z,20.73
2023-12-18T00:51:18.858Z,20.80
2023-12-18T00:53:45.317Z,20.76
2023-12-18T00:56:11.669Z,20.77
2023-12-18T00:58:38.072Z,20.71
2023-12-18T01:01:04.557Z,20.70
2023-12-18T01:03:31.032Z,20.69
2023-12-18T01:05:57.385Z,20.73
2023-12-18T01:08:23.721Z,20.73
2023-12-18T01:10:50.091Z,20.75
2023-12-18T01:13:16.513Z,20.72
2023-12-18T01:15:42.906Z,20.74
2023-12-18T01:18:09.585Z,20.78
2023-12-18T01:20:36.137Z,20.76
2023-12-18T01:23:04.860Z,20.71
2023-12-18T01:25:31.752Z,20.74
2023-12-18T01:27:58.174Z,20.71
2023-12-18T01:30:24.624Z,20.80
2023-12-18T01:32:51.205Z,20.83
2023-12-18T01:35:17.631Z,20.72
2023-12-18T01:37:44.356Z,20.75
2023-12-18T01:40:10.872Z,20.76
2023-12-18T01:42:37.299Z,20.76
2023-12-18T01:45:03.816Z,20.78
2023-12-18T01:47:30.347Z,20.77
2023-12-18T01:49:56.717Z,20.78
2023-12-18T01:52:23.061Z,20.76
2023-12-18T01:54:49.434Z,20.80
2023-12-18T01:57:15.894Z,20.80
2023-12-18T01:59:42.278Z,20.81
2023-12-18T02:02:08.643Z,20.73
2023-12-18T02:04:35.092Z,20.80
2023-12-18T02:07:01.514Z,20.76
2023-12-18T02:09:27.893Z,20.74
2023-12-18T02:11:54.300Z,20.73
2023-12-18T02:14:20.655Z,20.74
2023-12-18T02:16:47.043Z,20.77
2023-12-18T02:19:13.541Z,20.69
2023-12-18T02:21:40.023Z,20.71
2023-12-18T02:24:06.535Z,20.77
2023-12-18T02:26:32.936Z,20.71
2023-12-18T02:28:59.297Z,20.72
2023-12-18T02:31:25.744Z,20.76
2023-12-18T02:33:52.453Z,20.78
2023-12-18T02:36:19.146Z,20.77
2023-12-18T02:38:45.563Z,20.82
2023-12-18T02:41:11.937Z,20.81
2023-12-18T02:43:38.268Z,20.74
2023-12-18T02:46:04.595Z,20.73
2023-12-18T02:48:31.057Z,20.81
2023-12-18T02:50:57.454Z,20.78
2023-12-18T02:53:23.813Z,20.79
2023-12-18T02:55:50.195Z,20.77
2023-12-18T02:58:16.537Z,20.76
2023-12-18T03:00:42.968Z,20.76
2023-12-18T03:03:09.504Z,20.76
2023-12-18T03:05:35.974Z,20.79
2023-12-18T03:08:02.351Z,20.77
2023-12-18T03:10:28.684Z,20.75
2023-12-18T03:12:55.041Z,20.76
2023-12-18T03:15:21.475Z,20.80
2023-12-18T03:17:48.210Z,20.78
2023-12-18T03:20:14.767Z,20.84
2023-12-18T03:22:41.133Z,20.85
2023-12-18T03:25:07.511Z,20.82
2023-12-18T03:27:33.969Z,20.85
2023-12-18T03:30:00.409Z,20.81
2023-12-18T03:32:26.782Z,20.85
2023-12-18T03:34:53.147Z,20.82
2023-12-18T03:37:19.494Z,20.74
2023-12-18T03:39:45.921Z,20.82
2023-12-18T03:42:12.410Z,20.85
2023-12-18T03:44:38.842Z,20.87
2023-12-18T03:47:05.276Z,20.85
2023-12-18T03:49:31.727Z,20.80
2023-12-18T03:51:58.212Z,20.83
2023-12-18T03:54:24.729Z,20.83
2023-12-18T03:56:51.182Z,20.84
2023-12-18T03:59:17.572Z,20.82
2023-12-18T04:01:43.938Z,20.84
2023-12-18T04:04:10.422Z,20.77
2023-12-18T04:06:36.853Z,20.84
2023-12-18T04:09:03.301Z,20.83
2023-12-18T04:11:29.658Z,20.87
2023-12-18T04:13:55.989Z,20.87
2023-12-18T04:16:22.343Z,20.88
2023-12-18T04:18:48.817Z,20.92
2023-12-18T04:21:15.316Z,20.84
2023-12-18T04:23:41.716Z,20.92
2023-12-18T04:26:08.093Z,20.91
2023-12-18T04:28:34.486Z,20.92
2023-12-18T04:31:00.926Z,20.85
2023-12-18T04:33:27.481Z,20.85
2023-12-18T04:35:53.909Z,20.89
2023-12-18T04:38:20.245Z,20.86
2023-12-18T04:40:46.657Z,20.85
2023-12-18T04:43:13.009Z,20.87
2023-12-18T04:45:39.438Z,20.87
2023-12-18T04:48:06.137Z,20.86
2023-12-18T04:50:32.614Z,20.87
2023-12-18T04:52:58.950Z,20.87
2023-12-18T04:55:25.339Z,20.85
2023-12-18T04:57:51.742Z,20.84
2023-12-18T05:00:18.158Z,20.87
2023-12-18T05:02:44.793Z,20.85
2023-12-18T05:05:11.229Z,20.88
2023-12-18T05:07:37.621Z,20.85
2023-12-18T05:10:04.003Z,20.89
2023-12-18T05:12:30.361Z,20.90
2023-12-18T05:14:57.482Z,20.86
2023-12-18T05:17:24.762Z,20.89
2023-12-18T05:19:51.137Z,20.87
2023-12-18T05:22:17.545Z,20.94
2023-12-18T05:24:43.904Z,20.90
2023-12-18T05:27:10.323Z,20.95
2023-12-18T05:29:36.704Z,20.94
2023-12-18T05:32:03.116Z,20.92
2023-12-18T05:34:31.134Z,20.92
2023-12-18T05:36:57.931Z,20.94
2023-12-18T05:39:24.315Z,20.90
2023-12-18T05:41:50.671Z,20.99
2023-12-18T05:44:17.018Z,21.00
2023-12-18T05:46:43.345Z,20.95
2023-12-18T05:49:09.837Z,20.97
2023-12-18T05:51:36.291Z,20.92
2023-12-18T05:54:02.796Z,20.95
2023-12-18T05:56:29.148Z,20.94
2023-12-18T05:58:55.483Z,20.95
2023-12-18T06:01:21.909Z,20.95
2023-12-18T06:03:48.441Z,20.92
2023-12-18T06:06:14.938Z,20.90
2023-12-18T06:08:41.369Z,20.92
2023-12-18T06:11:07.775Z,20.91
2023-12-18T06:13:34.136Z,20.89
2023-12-18T06:16:00.558Z,20.87
2023-12-18T06:18:27.010Z,20.86
2023-12-18T06:20:53.441Z,20.88
2023-12-18T06:23:19.839Z,20.86
2023-12-18T06:25:46.198Z,20.89
2023-12-18T06:28:12.562Z,20.85
2023-12-18T06:30:38.999Z,20.90
2023-12-18T06:33:05.596Z,20.90
2023-12-18T06:35:32.074Z,20.81
2023-12-18T06:37:58.420Z,20.85
2023-12-18T06:40:24.790Z,20.90
2023-12-18T06:42:51.131Z,20.86
2023-12-18T06:45:17.566Z,20.85
2023-12-18T06:47:43.993Z,20.87
2023-12-18T06:50:10.371Z,20.87
2023-12-18T06:52:36.707Z,20.88
2023-12-18T06:55:03.080Z,20.90
2023-12-18T06:57:29.443Z,20.90
2023-12-18T06:59:55.774Z,20.86
2023-12-18T07:02:22.172Z,20.91
2023-12-18T07:04:48.604Z,20.91
2023-12-18T07:07:15.005Z,20.89
2023-12-18T07:09:41.439Z,20.91
2023-12-18T07:12:07.940Z,20.84
2023-12-18T07:14:34.327Z,20.73
2023-12-18T07:17:00.726Z,20.75
2023-12-18T07:19:27.196Z,20.76
2023-12-18T07:21:53.720Z,20.84
2023-12-18T07:24:20.113Z,20.83
2023-12-18T07:26:46.471Z,20.84
2023-12-18T07:29:12.851Z,20.98
2023-12-18T07:31:39.344Z,20.88
2023-12-18T07:34:05.948Z,20.94
2023-12-18T07:36:32.499Z,20.86
2023-12-18T07:38:59.430Z,20.86
2023-12-18T07:41:25.836Z,20.88
2023-12-18T07:43:52.226Z,20.87
2023-12-18T07:46:18.572Z,20.89
2023-12-18T07:48:45.083Z,20.87
2023-12-18T07:51:11.729Z,20.85
2023-12-18T07:53:38.135Z,20.90
2023-12-18T07:56:04.459Z,20.88
2023-12-18T07:58:30.881Z,20.91
2023-12-18T08:00:57.351Z,20.85
2023-12-18T08:03:23.853Z,20.85
2023-12-18T08:05:50.291Z,20.87
2023-12-18T08:08:16.636Z,20.83
2023-12-18T08:10:42.997Z,20.81
2023-12-18T08:13:09.331Z,20.96
2023-12-18T08:15:35.703Z,20.94
2023-12-18T08:18:02.174Z,20.93
2023-12-18T08:20:28.627Z,20.91
2023-12-18T08:22:54.976Z,20.95
2023-12-18T08:25:21.371Z,20.81
2023-12-18T08:27:47.822Z,20.81
2023-12-18T08:30:14.346Z,20.89
2023-12-18T08:32:41.247Z,20.83
2023-12-18T08:35:07.922Z,20.85
2023-12-18T08:37:34.325Z,20.92
2023-12-18T08:40:00.740Z,20.85
2023-12-18T08:42:27.217Z,20.87
2023-12-18T08:44:54.524Z,20.88
2023-12-18T08:47:21.893Z,20.94
2023-12-18T08:49:48.289Z,20.90
2023-12-18T08:52:14.626Z,20.90
2023-12-18T08:54:41.015Z,20.93
2023-12-18T08:57:07.404Z,20.94
2023-12-18T08:59:33.793Z,20.88
2023-12-18T09:02:00.226Z,20.97
2023-12-18T09:04:26.794Z,20.91
2023-12-18T09:06:53.211Z,20.90
2023-12-18T09:09:19.610Z,20.88
2023-12-18T09:11:46.037Z,20.90
2023-12-18T09:14:12.444Z,20.85
2023-12-18T09:16:38.990Z,20.79
2023-12-18T09:19:05.484Z,20.86
2023-12-18T09:21:32.006Z,20.84
2023-12-18T09:23:58.386Z,20.89
2023-12-18T09:26:24.753Z,20.85
2023-12-18T09:28:51.153Z,20.92
2023-12-18T09:31:17.629Z,20.84
2023-12-18T09:33:44.171Z,20.69
2023-12-18T09:36:10.655Z,20.72
2023-12-18T09:38:37.055Z,20.76
2023-12-18T09:41:03.436Z,20.71
2023-12-18T09:43:29.837Z,20.74
2023-12-18T09:45:56.251Z,20.79
2023-12-18T09:48:22.789Z,20.79
2023-12-18T09:50:49.255Z,20.79
2023-12-18T09:53:15.633Z,20.83
2023-12-18T09:55:41.996Z,20.86
2023-12-18T09:58:08.359Z,20.91
2023-12-18T10:00:34.906Z,20.88
2023-12-18T10:03:01.437Z,20.98
2023-12-18T10:05:27.940Z,20.86
2023-12-18T10:07:54.393Z,20.93
2023-12-18T10:10:20.738Z,20.90
2023-12-18T10:12:47.126Z,20.89
2023-12-18T10:15:13.611Z,20.84
2023-12-18T10:17:40.122Z,20.89
2023-12-18T10:20:06.685Z,20.87
2023-12-18T10:22:33.062Z,20.88
2023-12-18T10:24:59.495Z,20.85
2023-12-18T10:27:26.009Z,20.85
2023-12-18T10:29:52.494Z,20.82
2023-12-18T10:32:18.858Z,20.79
2023-12-18T10:34:45.270Z,20.81
2023-12-18T10:37:11.728Z,20.84
2023-12-18T10:39:38.131Z,20.82
2023-12-18T10:42:04.499Z,20.79
2023-12-18T10:44:30.875Z,20.78
2023-12-18T10:46:57.318Z,20.78
2023-12-18T10:49:23.832Z,20.72
2023-12-18T10:51:50.311Z,20.74
2023-12-18T10:54:16.738Z,20.71
2023-12-18T10:56:43.101Z,20.75
2023-12-18T10:59:09.470Z,20.79
2023-12-18T11:01:35.835Z,20.78
2023-12-18T11:04:02.378Z,20.74
2023-12-18T11:06:28.949Z,20.73
2023-12-18T11:08:55.345Z,20.78
2023-12-18T11:11:21.726Z,20.80
2023-12-18T11:13:48.088Z,20.83
2023-12-18T11:16:14.554Z,20.80
2023-12-18T11:18:41.147Z,20.81
2023-12-18T11:21:07.596Z,20.85
2023-12-18T11:23:33.957Z,20.75
2023-12-18T11:26:00.350Z,20.84
2023-12-18T11:28:26.866Z,20.76
2023-12-18T11:30:53.336Z,20.74
2023-12-18T11:33:19.879Z,20.73
2023-12-18T11:35:46.358Z,20.86
2023-12-18T11:38:12.736Z,20.79
2023-12-18T11:40:39.212Z,20.76
2023-12-18T11:43:05.592Z,20.82
2023-12-18T11:45:32.027Z,20.83
2023-12-18T11:47:58.551Z,20.88
2023-12-18T11:50:25.024Z,20.82
2023-12-18T11:52:51.389Z,20.84
2023-12-18T11:55:17.757Z,20.80
2023-12-18T11:57:44.139Z,20.84
2023-12-18T12:00:10.615Z,20.93
2023-12-18T12:02:37.040Z,20.88
2023-12-18T12:05:03.405Z,20.84
2023-12-18T12:07:29.927Z,20.86
2023-12-18T12:09:56.444Z,20.87
2023-12-18T12:12:22.963Z,20.86
2023-12-18T12:14:49.540Z,20.87
2023-12-18T12:17:15.949Z,20.89
2023-12-18T12:19:42.410Z,20.83
2023-12-18T12:22:08.879Z,20.83
2023-12-18T12:24:35.377Z,20.80
2023-12-18T12:27:01.755Z,20.89
2023-12-18T12:29:28.149Z,20.81
2023-12-18T12:32:00.305Z,20.85
2023-12-18T12:34:33.350Z,20.84
2023-12-18T12:36:59.876Z,20.89
2023-12-18T12:39:26.241Z,20.81
2023-12-18T12:41:52.671Z,20.90
2023-12-18T12:44:19.101Z,20.91
2023-12-18T12:46:45.465Z,20.89
2023-12-18T12:49:11.974Z,20.88
2023-12-18T12:51:38.537Z,20.96
2023-12-18T12:54:04.890Z,21.03
2023-12-18T12:56:31.276Z,20.95
2023-12-18T12:58:57.619Z,20.89
2023-12-18T13:01:24.096Z,20.93
2023-12-18T13:03:50.605Z,21.08
2023-12-18T13:06:17.175Z,21.04
2023-12-18T13:08:43.542Z,20.95
2023-12-18T13:11:09.938Z,20.92
2023-12-18T13:13:36.287Z,21.00
2023-12-18T13:16:02.639Z,21.05
2023-12-18T13:18:29.216Z,21.11
2023-12-18T13:20:55.708Z,21.05
2023-12-18T13:23:22.116Z,21.07
2023-12-18T13:25:48.524Z,21.05
2023-12-18T13:28:14.907Z,21.05
2023-12-18T13:30:41.325Z,21.14
2023-12-18T13:33:07.851Z,21.26
2023-12-18T13:35:34.257Z,21.38
2023-12-18T13:38:00.698Z,21.39
2023-12-18T13:40:27.048Z,21.25
2023-12-18T13:42:53.696Z,21.13
2023-12-18T13:45:20.162Z,21.09
2023-12-18T13:47:46.870Z,21.20
2023-12-18T13:50:13.410Z,21.12
2023-12-18T13:52:39.782Z,21.27
2023-12-18T13:55:06.296Z,21.28
2023-12-18T13:57:39.358Z,21.28
2023-12-18T14:00:12.622Z,21.39
2023-12-18T14:02:39.054Z,21.40
2023-12-18T14:05:05.409Z,21.37
2023-12-18T14:07:31.820Z,21.48
2023-12-18T14:09:58.249Z,21.47
2023-12-18T14:12:24.811Z,21.36
2023-12-18T14:14:51.205Z,21.24
2023-12-18T14:17:17.551Z,20.75
2023-12-18T14:19:43.998Z,21.16
2023-12-18T14:22:10.448Z,21.08
2023-12-18T14:24:38.115Z,21.19
2023-12-18T14:27:04.478Z,21.22
2023-12-18T14:29:30.908Z,21.45
2023-12-18T14:31:57.429Z,21.45
2023-12-18T14:34:23.980Z,21.36
2023-12-18T14:36:50.411Z,21.31
2023-12-18T14:39:16.868Z,21.42
2023-12-18T14:41:43.258Z,21.43
2023-12-18T14:44:09.612Z,21.56
2023-12-18T14:46:36.009Z,21.62
2023-12-18T14:49:02.441Z,21.62
2023-12-18T14:51:28.877Z,21.45
2023-12-18T14:53:55.256Z,21.36
2023-12-18T14:56:27.368Z,21.42
2023-12-18T14:59:00.353Z,21.34
2023-12-18T15:01:26.822Z,21.40
2023-12-18T15:03:53.337Z,21.30
2023-12-18T15:06:19.817Z,21.29
2023-12-18T15:08:46.239Z,21.39
2023-12-18T15:11:12.594Z,21.41
2023-12-18T15:13:38.942Z,21.24
2023-12-18T15:16:05.370Z,21.25
2023-12-18T15:18:32.073Z,21.29
2023-12-18T15:20:58.705Z,21.28
2023-12-18T15:23:25.070Z,21.26
2023-12-18T15:25:51.451Z,21.23
2023-12-18T15:28:17.805Z,21.19
2023-12-18T15:30:44.223Z,21.11
2023-12-18T15:33:10.688Z,21.20
2023-12-18T15:35:44.081Z,21.17
2023-12-18T15:38:10.520Z,21.27
2023-12-18T15:40:36.874Z,21.20
2023-12-18T15:43:03.244Z,21.21
2023-12-18T15:45:29.645Z,21.15
2023-12-18T15:47:56.141Z,21.18
2023-12-18T15:50:22.942Z,21.11
2023-12-18T15:52:49.469Z,21.27
2023-12-18T15:55:15.809Z,21.27
2023-12-18T15:57:42.264Z,21.18
2023-12-18T16:00:08.631Z,21.19
2023-12-18T16:02:37.192Z,21.24
2023-12-18T16:05:03.738Z,21.27
2023-12-18T16:07:30.124Z,21.11
2023-12-18T16:09:56.492Z,21.17
2023-12-18T16:12:22.889Z,21.15
2023-12-18T16:14:49.301Z,21.12
2023-12-18T16:17:15.700Z,21.05
2023-12-18T16:19:42.111Z,20.97
2023-12-18T16:22:08.542Z,21.06
2023-12-18T16:24:34.911Z,21.16
2023-12-18T16:27:01.270Z,21.05
2023-12-18T16:29:27.614Z,21.04
2023-12-18T16:31:54.033Z,21.03
2023-12-18T16:34:20.480Z,21.05
2023-12-18T16:36:46.968Z,21.14
2023-12-18T16:39:13.366Z,21.17
2023-12-18T16:41:39.738Z,21.13
2023-12-18T16:44:06.135Z,21.02
2023-12-18T16:46:40.287Z,21.03
2023-12-18T16:49:11.495Z,21.05
2023-12-18T16:51:38.092Z,20.94
2023-12-18T16:54:04.445Z,21.03
2023-12-18T16:56:30.826Z,21.10
2023-12-18T16:58:57.176Z,21.16
2023-12-18T17:01:23.744Z,21.01
2023-12-18T17:03:50.321Z,21.03
2023-12-18T17:06:16.768Z,21.08
2023-12-18T17:08:43.113Z,21.08
2023-12-18T17:11:09.519Z,20.98
2023-12-18T17:13:35.865Z,20.96
2023-12-18T17:16:02.349Z,21.01
2023-12-18T17:18:28.847Z,21.05
2023-12-18T17:20:55.210Z,20.94
2023-12-18T17:23:21.566Z,21.01
2023-12-18T17:25:47.932Z,21.01
2023-12-18T17:28:14.314Z,20.97
2023-12-18T17:30:40.775Z,20.96
2023-12-18T17:33:07.218Z,20.95
2023-12-18T17:35:33.616Z,20.96
2023-12-18T17:37:59.990Z,20.97
2023-12-18T17:40:26.340Z,20.96
2023-12-18T17:42:52.719Z,21.03
2023-12-18T17:45:19.154Z,20.96
2023-12-18T17:47:45.622Z,21.05
2023-12-18T17:50:12.176Z,21.02
2023-12-18T17:52:38.606Z,21.01
2023-12-18T17:55:04.984Z,20.94
2023-12-18T17:57:31.422Z,21.02
2023-12-18T17:59:57.896Z,21.12
2023-12-18T18:02:24.272Z,20.96
2023-12-18T18:04:50.630Z,20.93
2023-12-18T18:07:17.010Z,20.90
2023-12-18T18:09:43.432Z,20.95
2023-12-18T18:12:09.797Z,20.85
2023-12-18T18:14:36.159Z,20.81
2023-12-18T18:17:02.546Z,20.87
2023-12-18T18:19:29.093Z,20.99
2023-12-18T18:21:55.590Z,20.97
2023-12-18T18:24:22.108Z,21.12
2023-12-18T18:26:48.494Z,21.13
2023-12-18T18:29:14.872Z,21.19
2023-12-18T18:31:41.312Z,21.25
2023-12-18T18:34:07.828Z,21.21
2023-12-18T18:36:34.381Z,21.25
2023-12-18T18:39:01.087Z,21.26
2023-12-18T18:41:27.443Z,21.10
2023-12-18T18:43:53.877Z,20.97
2023-12-18T18:46:20.265Z,21.13
2023-12-18T18:48:46.653Z,21.11
2023-12-18T18:51:13.131Z,21.07
2023-12-18T18:53:39.493Z,21.11
2023-12-18T18:56:05.877Z,21.06
2023-12-18T18:58:32.262Z,21.25
2023-12-18T19:00:58.806Z,21.27
2023-12-18T19:03:25.310Z,21.25
2023-12-18T19:05:51.705Z,21.13
2023-12-18T19:08:18.041Z,21.27
2023-12-18T19:10:44.399Z,21.28
2023-12-18T19:13:10.743Z,21.28
2023-12-18T19:15:37.137Z,21.29
2023-12-18T19:18:03.654Z,21.31
2023-12-18T19:20:30.151Z,21.34
2023-12-18T19:22:56.558Z,21.31
2023-12-18T19:25:22.922Z,21.43
2023-12-18T19:27:49.362Z,21.37
2023-12-18T19:30:15.788Z,21.41
2023-12-18T19:32:42.201Z,21.36
2023-12-18T19:35:08.685Z,21.35
2023-12-18T19:37:35.013Z,21.33
2023-12-18T19:40:01.401Z,21.24
2023-12-18T19:42:27.838Z,21.21
2023-12-18T19:44:54.216Z,21.41
2023-12-18T19:47:20.587Z,21.38
2023-12-18T19:49:47.078Z,21.39
2023-12-18T19:52:13.626Z,21.35
2023-12-18T19:54:40.034Z,21.34
2023-12-18T19:57:06.415Z,21.24
2023-12-18T19:59:32.816Z,21.25
2023-12-18T20:01:59.177Z,21.22
2023-12-18T20:04:25.545Z,21.20
2023-12-18T20:06:51.977Z,21.17
2023-12-18T20:09:18.501Z,21.20
2023-12-18T20:11:44.880Z,21.11
2023-12-18T20:14:11.241Z,21.24
2023-12-18T20:16:37.577Z,21.17
2023-12-18T20:19:03.998Z,21.20
2023-12-18T20:21:30.428Z,21.22
2023-12-18T20:23:56.785Z,21.29
2023-12-18T20:26:23.114Z,21.29
2023-12-18T20:28:49.464Z,21.27
2023-12-18T20:31:15.870Z,21.21
2023-12-18T20:33:42.408Z,21.25
2023-12-18T20:36:08.803Z,21.15
2023-12-18T20:38:35.146Z,21.28
2023-12-18T20:41:01.500Z,21.26
2023-12-18T20:43:27.884Z,21.33
2023-12-18T20:45:54.286Z,21.27
2023-12-18T20:48:20.828Z,21.30
2023-12-18T20:50:47.284Z,21.30
2023-12-18T20:53:13.710Z,21.33
2023-12-18T20:55:40.046Z,21.30
2023-12-18T20:58:06.448Z,21.40
2023-12-18T21:00:33.459Z,21.37
2023-12-18T21:03:00.165Z,21.32
2023-12-18T21:05:26.869Z,21.29
2023-12-18T21:07:53.255Z,21.25
2023-12-18T21:10:19.670Z,21.38
2023-12-18T21:12:46.243Z,21.36
2023-12-18T21:15:12.752Z,21.37
2023-12-18T21:17:39.169Z,21.53
2023-12-18T21:20:05.617Z,21.39
2023-12-18T21:22:32.057Z,21.24
2023-12-18T21:24:58.592Z,21.22
2023-12-18T21:27:25.050Z,21.35
2023-12-18T21:29:51.422Z,21.33
2023-12-18T21:32:17.773Z,21.27
2023-12-18T21:34:44.356Z,21.28
2023-12-18T21:37:10.860Z,21.29
2023-12-18T21:39:37.293Z,21.31
2023-12-18T21:42:03.774Z,21.29
2023-12-18T21:44:30.121Z,21.24
2023-12-18T21:46:56.568Z,21.30
2023-12-18T21:49:23.050Z,21.33
2023-12-18T21:51:49.482Z,21.23
2023-12-18T21:54:15.968Z,21.23
2023-12-18T21:56:42.347Z,21.27
2023-12-18T21:59:08.737Z,21.26
2023-12-18T22:01:37.821Z,21.35
2023-12-18T22:04:05.214Z,21.37
2023-12-18T22:06:31.630Z,21.28
2023-12-18T22:08:57.989Z,21.30
2023-12-18T22:11:24.364Z,21.34
2023-12-18T22:13:50.699Z,21.30
2023-12-18T22:16:17.092Z,21.30
2023-12-18T22:18:43.486Z,21.34
2023-12-18T22:21:11.922Z,21.38
2023-12-18T22:23:38.652Z,21.29
2023-12-18T22:26:05.020Z,21.27
2023-12-18T22:28:31.358Z,21.31
2023-12-18T22:30:57.785Z,21.30
2023-12-18T22:33:24.279Z,21.26
2023-12-18T22:35:50.746Z,21.32
2023-12-18T22:38:17.113Z,21.33
2023-12-18T22:40:43.465Z,21.27
2023-12-18T22:43:09.865Z,21.29
2023-12-18T22:45:36.283Z,21.20
2023-12-18T22:48:02.759Z,21.26
2023-12-18T22:50:29.205Z,21.25
2023-12-18T22:52:55.543Z,21.33
2023-12-18T22:55:21.902Z,21.27
2023-12-18T22:57:48.318Z,21.25
2023-12-18T23:00:14.737Z,21.23
2023-12-18T23:02:41.258Z,21.26
2023-12-18T23:05:07.782Z,21.24
2023-12-18T23:07:34.182Z,21.24
2023-12-18T23:10:00.702Z,21.21
2023-12-18T23:12:27.197Z,21.17
2023-12-18T23:14:53.562Z,21.17
2023-12-18T23:17:19.915Z,21.17
2023-12-18T23:19:46.385Z,21.22
2023-12-18T23:22:12.863Z,21.24
2023-12-18T23:24:39.265Z,21.19
2023-12-18T23:27:05.642Z,21.17
2023-12-18T23:29:32.013Z,21.15
2023-12-18T23:31:58.373Z,21.15
2023-12-18T23:34:24.873Z,21.19
2023-12-18T23:36:51.368Z,21.21
2023-12-18T23:39:17.764Z,21.25
2023-12-18T23:41:44.135Z,21.20
2023-12-18T23:44:10.543Z,21.20
2023-12-18T23:46:36.909Z,21.23
2023-12-18T23:49:03.359Z,21.15
2023-12-18T23:51:29.787Z,21.16
2023-12-18T23:53:56.143Z,21.14
2023-12-18T23:56:22.505Z,21.10
2023-12-18T23:58:48.886Z,21.14
